createdAt,value
2018-05-06T00:02:24.227Z,1.70
2018-05-06T00:04:51.838Z,1.30
2018-05-06T00:07:19.410Z,1.30
2018-05-06T00:09:47.034Z,1.40
2018-05-06T00:12:14.682Z,1.40
2018-05-06T00:14:42.274Z,1.50
2018-05-06T00:17:09.962Z,1.70
2018-05-06T00:19:37.572Z,1.53
2018-05-06T00:22:05.198Z,1.93
2018-05-06T00:24:32.772Z,1.70
2018-05-06T00:27:00.433Z,1.40
2018-05-06T00:29:28.022Z,1.43
2018-05-06T00:31:55.635Z,1.53
2018-05-06T00:34:23.227Z,1.60
2018-05-06T00:36:51.589Z,1.40
2018-05-06T00:39:19.185Z,1.57
2018-05-06T00:41:46.871Z,1.50
2018-05-06T00:44:14.456Z,1.80
2018-05-06T00:46:42.265Z,1.50
2018-05-06T00:49:09.831Z,1.50
2018-05-06T00:51:37.426Z,1.87
2018-05-06T00:54:16.740Z,1.60
2018-05-06T00:56:44.342Z,1.90
2018-05-06T00:59:11.925Z,1.90
2018-05-06T01:01:39.528Z,1.93
2018-05-06T01:04:07.106Z,1.60
2018-05-06T01:06:34.766Z,2.00
2018-05-06T01:09:02.332Z,1.97
2018-05-06T01:11:29.930Z,1.67
2018-05-06T01:13:57.504Z,1.93
2018-05-06T01:16:25.854Z,1.60
2018-05-06T01:18:53.432Z,2.07
2018-05-06T01:21:21.042Z,1.87
2018-05-06T01:23:48.625Z,1.70
2018-05-06T01:26:16.309Z,1.40
2018-05-06T01:28:43.907Z,1.73
2018-05-06T01:31:11.531Z,1.90
2018-05-06T01:33:39.126Z,1.77
2018-05-06T01:36:06.724Z,2.10
2018-05-06T01:38:34.303Z,1.80
2018-05-06T01:41:01.889Z,1.93
2018-05-06T01:43:29.497Z,1.80
2018-05-06T01:45:57.067Z,2.00
2018-05-06T01:48:24.725Z,2.13
2018-05-06T01:50:52.325Z,1.90
2018-05-06T01:53:19.950Z,1.60
2018-05-06T01:55:47.555Z,1.90
2018-05-06T01:58:15.147Z,2.00
2018-05-06T02:00:42.763Z,1.93
2018-05-06T02:03:10.377Z,1.70
2018-05-06T02:05:37.976Z,1.70
2018-05-06T02:08:05.573Z,1.70
2018-05-06T02:10:33.967Z,1.90
2018-05-06T02:13:02.025Z,2.00
2018-05-06T02:15:30.383Z,1.93
2018-05-06T02:17:58.196Z,1.83
2018-05-06T02:20:25.786Z,1.80
2018-05-06T02:22:53.369Z,1.90
2018-05-06T02:25:20.988Z,1.90
2018-05-06T02:27:48.576Z,2.00
2018-05-06T02:30:16.267Z,1.87
2018-05-06T02:32:43.787Z,1.63
2018-05-06T02:35:11.356Z,2.20
2018-05-06T02:37:38.938Z,1.83
2018-05-06T02:40:06.531Z,2.10
2018-05-06T02:42:34.889Z,2.07
2018-05-06T02:45:03.339Z,2.40
2018-05-06T02:47:30.942Z,3.30
2018-05-06T02:49:58.563Z,3.27
2018-05-06T02:52:26.144Z,3.57
2018-05-06T02:54:53.738Z,3.30
2018-05-06T02:57:22.084Z,2.97
2018-05-06T02:59:49.732Z,2.77
2018-05-06T03:02:17.330Z,2.90
2018-05-06T03:04:45.695Z,3.00
2018-05-06T03:07:13.277Z,2.77
2018-05-06T03:09:40.837Z,2.47
2018-05-06T03:12:08.455Z,2.50
2018-05-06T03:14:36.388Z,2.10
2018-05-06T03:17:03.946Z,2.27
2018-05-06T03:19:31.531Z,2.10
2018-05-06T03:21:59.134Z,2.43
2018-05-06T03:24:26.733Z,2.50
2018-05-06T03:26:54.371Z,1.80
2018-05-06T03:29:22.721Z,2.37
2018-05-06T03:31:50.301Z,1.87
2018-05-06T03:34:17.876Z,2.10
2018-05-06T03:36:45.760Z,2.10
2018-05-06T03:39:13.418Z,2.70
2018-05-06T03:41:41.016Z,2.03
2018-05-06T03:44:08.605Z,2.10
2018-05-06T03:46:36.189Z,1.93
2018-05-06T03:49:04.537Z,2.30
2018-05-06T03:51:32.133Z,2.13
2018-05-06T03:53:59.717Z,2.20
2018-05-06T03:59:48.619Z,2.20
2018-05-06T04:02:31.102Z,2.03
2018-05-06T04:04:58.712Z,2.00
2018-05-06T04:07:26.320Z,2.63
2018-05-06T04:09:53.889Z,2.07
2018-05-06T04:12:21.488Z,1.90
2018-05-06T04:14:49.092Z,2.00
2018-05-06T04:17:16.699Z,2.40
2018-05-06T04:19:44.307Z,2.20
2018-05-06T04:22:11.879Z,2.23
2018-05-06T04:24:40.267Z,2.30
2018-05-06T04:27:07.845Z,2.10
2018-05-06T04:29:35.451Z,2.20
2018-05-06T04:32:03.039Z,2.33
2018-05-06T04:34:31.399Z,2.33
2018-05-06T04:36:58.975Z,2.40
2018-05-06T04:39:26.575Z,2.23
2018-05-06T04:41:54.185Z,2.20
2018-05-06T04:44:21.788Z,2.20
2018-05-06T04:46:49.424Z,2.20
2018-05-06T04:49:17.014Z,2.30
2018-05-06T04:51:44.621Z,2.20
2018-05-06T04:54:12.206Z,2.20
2018-05-06T04:56:40.566Z,2.20
2018-05-06T04:59:08.162Z,2.17
2018-05-06T05:01:35.761Z,2.70
2018-05-06T05:04:03.361Z,2.20
2018-05-06T05:06:31.035Z,2.20
2018-05-06T05:08:59.375Z,2.47
2018-05-06T05:11:26.957Z,2.20
2018-05-06T05:13:54.545Z,2.23
2018-05-06T05:16:22.154Z,1.90
2018-05-06T05:18:49.735Z,2.37
2018-05-06T05:21:17.353Z,2.30
2018-05-06T05:23:44.942Z,2.40
2018-05-06T05:26:12.535Z,2.33
2018-05-06T05:28:40.900Z,2.30
2018-05-06T05:31:08.468Z,2.17
2018-05-06T05:33:36.060Z,2.33
2018-05-06T05:36:03.680Z,2.20
2018-05-06T05:38:31.284Z,2.10
2018-05-06T05:40:58.877Z,2.30
2018-05-06T05:43:26.475Z,2.27
2018-05-06T05:45:54.102Z,2.40
2018-05-06T05:48:21.695Z,2.00
2018-05-06T05:50:49.291Z,2.07
2018-05-06T05:53:16.879Z,1.73
2018-05-06T05:55:44.495Z,2.13
2018-05-06T05:58:12.846Z,1.90
2018-05-06T06:00:40.445Z,2.20
2018-05-06T06:03:08.038Z,2.00
2018-05-06T06:05:35.626Z,2.00
2018-05-06T06:08:03.260Z,2.27
2018-05-06T06:10:30.860Z,2.30
2018-05-06T06:12:58.483Z,2.13
2018-05-06T06:15:26.080Z,2.30
2018-05-06T06:17:53.650Z,1.87
2018-05-06T06:20:21.233Z,1.90
2018-05-06T06:22:49.588Z,1.87
2018-05-06T06:25:17.329Z,2.30
2018-05-06T06:27:45.118Z,2.30
2018-05-06T06:30:12.684Z,2.10
2018-05-06T06:32:40.251Z,2.10
2018-05-06T06:35:07.839Z,2.50
2018-05-06T06:37:35.439Z,2.10
2018-05-06T06:40:03.062Z,2.00
2018-05-06T06:42:30.701Z,2.17
2018-05-06T06:44:58.291Z,2.03
2018-05-06T06:49:59.810Z,2.10
2018-05-06T06:52:27.393Z,3.23
2018-05-06T06:54:55.749Z,2.30
2018-05-06T06:57:23.361Z,2.80
2018-05-06T06:59:50.950Z,2.93
2018-05-06T07:02:18.547Z,3.00
2018-05-06T07:04:46.252Z,2.70
2018-05-06T07:07:13.857Z,2.10
2018-05-06T07:09:41.454Z,4.83
2018-05-06T07:12:09.825Z,2.50
2018-05-06T07:14:42.212Z,2.47
2018-05-06T07:17:10.649Z,2.90
2018-05-06T07:19:38.230Z,2.10
2018-05-06T07:22:05.811Z,2.37
2018-05-06T07:24:34.160Z,2.73
2018-05-06T07:27:01.784Z,2.23
2018-05-06T07:29:29.373Z,2.13
2018-05-06T07:31:56.976Z,1.70
2018-05-06T07:34:24.545Z,2.83
2018-05-06T07:36:52.140Z,2.10
2018-05-06T07:39:19.730Z,2.10
2018-05-06T07:41:47.310Z,2.10
2018-05-06T07:44:15.962Z,2.10
2018-05-06T07:46:43.535Z,2.23
2018-05-06T07:49:11.533Z,1.90
2018-05-06T07:51:39.907Z,2.17
2018-05-06T07:54:08.780Z,2.40
2018-05-06T07:56:36.387Z,2.50
2018-05-06T07:59:04.067Z,2.40
2018-05-06T08:01:31.653Z,2.40
2018-05-06T08:03:59.231Z,2.30
2018-05-06T08:06:26.852Z,2.60
2018-05-06T08:08:54.441Z,2.30
2018-05-06T08:11:22.020Z,2.37
2018-05-06T08:13:49.616Z,2.50
2018-05-06T08:16:18.146Z,2.20
2018-05-06T08:18:45.726Z,2.20
2018-05-06T08:21:13.315Z,2.57
2018-05-06T08:23:40.907Z,2.50
2018-05-06T08:26:08.501Z,2.80
2018-05-06T08:28:37.329Z,2.60
2018-05-06T08:31:05.718Z,2.87
2018-05-06T08:33:33.292Z,2.80
2018-05-06T08:36:00.898Z,2.27
2018-05-06T08:38:28.514Z,2.20
2018-05-06T08:40:56.260Z,1.97
2018-05-06T08:43:23.863Z,2.23
2018-05-06T08:45:51.467Z,2.43
2018-05-06T08:48:19.061Z,2.60
2018-05-06T08:50:46.679Z,2.33
2018-05-06T08:53:14.296Z,2.10
2018-05-06T08:55:41.980Z,2.20
2018-05-06T08:58:09.516Z,2.33
2018-05-06T09:00:37.157Z,1.90
2018-05-06T09:03:04.762Z,2.20
2018-05-06T09:05:32.354Z,2.10
2018-05-06T09:07:59.914Z,2.57
2018-05-06T09:10:27.523Z,2.13
2018-05-06T09:12:55.111Z,2.20
2018-05-06T09:15:22.702Z,2.00
2018-05-06T09:17:50.403Z,2.27
2018-05-06T09:20:17.989Z,2.23
2018-05-06T09:22:46.573Z,2.30
2018-05-06T09:25:14.998Z,1.93
2018-05-06T09:27:43.340Z,2.27
2018-05-06T09:30:10.998Z,2.47
2018-05-06T09:32:38.603Z,2.07
2018-05-06T09:35:07.257Z,2.10
2018-05-06T09:37:34.834Z,2.20
2018-05-06T09:40:02.409Z,2.30
2018-05-06T09:42:30.025Z,2.25
2018-05-06T09:44:57.648Z,2.50
2018-05-06T09:47:25.215Z,2.67
2018-05-06T09:49:52.806Z,2.15
2018-05-06T09:52:20.393Z,2.08
2018-05-06T09:54:48.786Z,2.47
2018-05-06T09:57:16.541Z,2.90
2018-05-06T09:59:44.129Z,1.83
2018-05-06T10:02:11.713Z,1.75
2018-05-06T10:04:39.298Z,2.12
2018-05-06T10:07:06.872Z,1.95
2018-05-06T10:09:34.442Z,2.20
2018-05-06T10:12:02.025Z,1.92
2018-05-06T10:14:29.751Z,2.22
2018-05-06T10:16:57.355Z,2.45
2018-05-06T10:19:24.969Z,2.20
2018-05-06T10:21:52.594Z,2.03
2018-05-06T10:24:20.184Z,2.25
2018-05-06T10:26:47.782Z,2.00
2018-05-06T10:29:15.385Z,1.90
2018-05-06T10:31:43.459Z,1.73
2018-05-06T10:34:11.023Z,1.67
2018-05-06T10:36:38.600Z,1.92
2018-05-06T10:39:06.392Z,1.95
2018-05-06T10:41:33.985Z,2.10
2018-05-06T10:44:01.653Z,1.95
2018-05-06T10:46:29.235Z,1.98
2018-05-06T10:48:56.854Z,1.70
2018-05-06T10:51:24.445Z,2.00
2018-05-06T10:53:52.041Z,2.00
2018-05-06T10:56:19.651Z,1.67
2018-05-06T10:58:47.261Z,2.10
2018-05-06T11:01:15.645Z,1.77
2018-05-06T11:03:43.234Z,1.70
2018-05-06T11:06:10.844Z,1.83
2018-05-06T11:08:38.495Z,1.90
2018-05-06T11:11:06.225Z,1.80
2018-05-06T11:13:33.822Z,1.60
2018-05-06T11:16:01.433Z,1.90
2018-05-06T11:18:29.137Z,1.80
2018-05-06T11:20:57.494Z,1.70
2018-05-06T11:23:25.059Z,2.12
2018-05-06T11:25:52.668Z,1.67
2018-05-06T11:28:20.241Z,1.75
2018-05-06T11:30:47.836Z,1.45
2018-05-06T11:33:15.425Z,1.48
2018-05-06T11:35:43.779Z,1.40
2018-05-06T11:38:11.374Z,1.50
2018-05-06T11:40:38.965Z,1.60
2018-05-06T11:43:06.540Z,1.30
2018-05-06T11:45:34.118Z,1.60
2018-05-06T11:48:01.773Z,1.40
2018-05-06T11:50:29.331Z,1.35
2018-05-06T11:52:56.935Z,1.35
2018-05-06T11:55:25.298Z,1.10
2018-05-06T11:57:52.905Z,1.30
2018-05-06T12:00:20.494Z,1.60
2018-05-06T12:02:48.117Z,1.12
2018-05-06T12:05:15.683Z,1.52
2018-05-06T12:07:43.620Z,1.42
2018-05-06T12:10:11.224Z,1.23
2018-05-06T12:12:38.846Z,1.02
2018-05-06T12:15:06.461Z,1.30
2018-05-06T12:17:34.265Z,1.23
2018-05-06T12:20:01.884Z,1.40
2018-05-06T12:22:29.486Z,1.10
2018-05-06T12:24:57.055Z,1.10
2018-05-06T12:27:24.662Z,1.17
2018-05-06T12:29:52.227Z,1.42
2018-05-06T12:32:19.828Z,1.35
2018-05-06T12:34:47.426Z,1.23
2018-05-06T12:37:15.029Z,1.30
2018-05-06T12:39:42.641Z,1.10
2018-05-06T12:42:10.272Z,1.37
2018-05-06T12:44:37.870Z,1.48
2018-05-06T12:47:06.275Z,1.33
2018-05-06T12:49:33.925Z,1.20
2018-05-06T12:52:01.474Z,1.50
2018-05-06T12:54:29.839Z,1.50
2018-05-06T12:56:58.240Z,1.73
2018-05-06T12:59:25.829Z,1.25
2018-05-06T13:01:53.503Z,1.65
2018-05-06T13:04:21.075Z,1.48
2018-05-06T13:09:10.949Z,1.30
2018-05-06T13:11:38.602Z,1.58
2018-05-06T13:14:06.190Z,1.65
2018-05-06T13:16:33.862Z,1.52
2018-05-06T13:19:01.434Z,1.33
2018-05-06T13:21:29.030Z,1.60
2018-05-06T13:23:56.619Z,1.25
2018-05-06T13:26:24.235Z,1.80
2018-05-06T13:28:51.853Z,1.73
2018-05-06T13:31:19.476Z,1.48
2018-05-06T13:33:47.075Z,1.65
2018-05-06T13:36:14.681Z,1.80
2018-05-06T13:38:42.292Z,1.65
2018-05-06T13:41:09.925Z,1.80
2018-05-06T13:43:37.625Z,1.65
2018-05-06T13:46:05.233Z,1.50
2018-05-06T13:48:33.626Z,1.55
2018-05-06T13:51:01.979Z,1.62
2018-05-06T13:53:29.610Z,2.10
2018-05-06T13:55:57.529Z,1.90
2018-05-06T13:58:29.540Z,1.87
2018-05-06T14:00:57.155Z,2.28
2018-05-06T14:03:24.750Z,2.00
2018-05-06T14:05:52.374Z,1.85
2018-05-06T14:08:19.965Z,1.75
2018-05-06T14:10:47.590Z,1.92
2018-05-06T14:13:15.197Z,1.62
2018-05-06T14:15:42.795Z,1.50
2018-05-06T14:18:10.407Z,1.65
2018-05-06T14:20:38.017Z,1.85
2018-05-06T14:23:05.642Z,1.62
2018-05-06T14:25:33.295Z,1.75
2018-05-06T14:28:00.883Z,1.62
2018-05-06T14:30:28.469Z,1.60
2018-05-06T14:32:56.080Z,1.80
2018-05-06T14:35:23.680Z,1.60
2018-05-06T14:37:51.294Z,1.35
2018-05-06T14:40:19.025Z,1.40
2018-05-06T14:42:46.617Z,1.50
2018-05-06T14:45:14.970Z,1.73
2018-05-06T14:47:54.228Z,1.42
2018-05-06T14:50:22.595Z,1.50
2018-05-06T14:52:50.190Z,1.60
2018-05-06T14:55:18.895Z,1.50
2018-05-06T14:57:48.302Z,1.48
2018-05-06T15:00:17.450Z,1.48
2018-05-06T15:02:50.221Z,1.35
2018-05-06T15:05:18.894Z,1.08
2018-05-06T15:07:47.116Z,1.45
2018-05-06T15:10:15.574Z,1.20
2018-05-06T15:12:44.093Z,1.60
2018-05-06T15:15:11.671Z,1.50
2018-05-06T15:17:39.258Z,1.20
2018-05-06T15:20:06.873Z,1.40
2018-05-06T15:22:34.480Z,1.30
2018-05-06T15:25:02.077Z,1.00
2018-05-06T15:27:29.651Z,1.20
2018-05-06T15:29:57.237Z,1.20
2018-05-06T15:32:24.869Z,1.20
2018-05-06T15:34:52.459Z,1.37
2018-05-06T15:37:20.056Z,1.50
2018-05-06T15:39:47.655Z,1.23
2018-05-06T15:42:15.280Z,1.25
2018-05-06T15:44:42.882Z,1.23
2018-05-06T15:47:10.480Z,1.12
2018-05-06T15:49:38.089Z,1.17
2018-05-06T15:52:06.424Z,1.10
2018-05-06T15:54:34.091Z,1.50
2018-05-06T15:57:01.697Z,1.12
2018-05-06T15:59:30.053Z,1.20
2018-05-06T16:05:02.063Z,2.40
2018-05-06T16:07:29.649Z,1.37
2018-05-06T16:09:57.224Z,1.30
2018-05-06T16:12:24.833Z,1.37
2018-05-06T16:14:53.187Z,1.50
2018-05-06T16:17:20.776Z,1.40
2018-05-06T16:19:48.350Z,1.67
2018-05-06T16:22:15.968Z,1.85
2018-05-06T16:24:43.731Z,1.42
2018-05-06T16:27:11.321Z,1.25
2018-05-06T16:29:38.952Z,1.23
2018-05-06T16:32:06.541Z,1.30
2018-05-06T16:34:34.130Z,1.40
2018-05-06T16:37:01.739Z,1.40
2018-05-06T16:39:29.358Z,1.58
2018-05-06T16:41:56.924Z,1.50
2018-05-06T16:44:24.550Z,2.00
2018-05-06T16:46:53.031Z,1.33
2018-05-06T16:49:21.399Z,1.62
2018-05-06T16:51:48.976Z,2.10
2018-05-06T16:54:16.557Z,1.80
2018-05-06T16:56:44.535Z,1.48
2018-05-06T16:59:12.148Z,1.50
2018-05-06T17:01:39.761Z,1.50
2018-05-06T17:04:07.379Z,1.50
2018-05-06T17:06:34.974Z,1.50
2018-05-06T17:09:02.599Z,1.60
2018-05-06T17:11:30.197Z,1.40
2018-05-06T17:13:57.796Z,1.70
2018-05-06T17:16:25.391Z,1.60
2018-05-06T17:18:52.987Z,1.75
2018-05-06T17:21:20.648Z,1.48
2018-05-06T17:23:48.223Z,1.50
2018-05-06T17:26:15.878Z,1.48
2018-05-06T17:28:43.486Z,1.60
2018-05-06T17:31:11.092Z,1.20
2018-05-06T17:33:38.676Z,1.80
2018-05-06T17:36:06.283Z,1.65
2018-05-06T17:38:33.877Z,1.55
2018-05-06T17:41:01.473Z,1.60
2018-05-06T17:43:29.847Z,1.52
2018-05-06T17:45:57.826Z,1.37
2018-05-06T17:48:26.123Z,1.40
2018-05-06T17:50:54.167Z,1.30
2018-05-06T17:53:22.399Z,1.40
2018-05-06T17:55:50.547Z,1.37
2018-05-06T17:58:18.721Z,1.40
2018-05-06T18:00:47.086Z,1.58
2018-05-06T18:03:15.193Z,1.70
2018-05-06T18:05:44.395Z,1.52
2018-05-06T18:08:12.612Z,1.20
2018-05-06T18:10:40.627Z,1.52
2018-05-06T18:13:08.710Z,1.50
2018-05-06T18:15:37.473Z,1.50
2018-05-06T18:18:05.380Z,1.62
2018-05-06T18:20:33.389Z,1.75
2018-05-06T18:23:01.611Z,1.52
2018-05-06T18:25:29.650Z,1.40
2018-05-06T18:27:57.647Z,1.17
2018-05-06T18:30:25.663Z,1.50
2018-05-06T18:32:54.384Z,1.20
2018-05-06T18:35:22.366Z,1.58
2018-05-06T18:37:50.726Z,1.60
2018-05-06T18:40:19.877Z,1.60
2018-05-06T18:42:48.115Z,1.55
2018-05-06T18:45:16.219Z,1.70
2018-05-06T18:47:44.987Z,1.62
2018-05-06T18:50:13.012Z,1.60
2018-05-06T18:52:41.032Z,1.40
2018-05-06T18:55:08.983Z,1.50
2018-05-06T18:57:37.971Z,1.70
2018-05-06T19:00:05.577Z,1.45
2018-05-06T19:02:33.197Z,1.83
2018-05-06T19:05:00.792Z,1.60
2018-05-06T19:07:28.381Z,1.50
2018-05-06T19:09:55.976Z,1.70
2018-05-06T19:12:23.576Z,1.50
2018-05-06T19:14:51.151Z,1.70
2018-05-06T19:17:19.528Z,2.17
2018-05-06T19:19:47.882Z,3.20
2018-05-06T19:22:15.473Z,3.37
2018-05-06T19:24:43.065Z,2.77
2018-05-06T19:27:10.659Z,2.00
2018-05-06T19:29:38.279Z,2.07
2018-05-06T19:32:05.889Z,1.77
2018-05-06T19:34:33.462Z,1.87
2018-05-06T19:37:01.202Z,1.90
2018-05-06T19:39:28.789Z,1.90
2018-05-06T19:41:56.369Z,1.90
2018-05-06T19:44:24.741Z,1.77
2018-05-06T19:46:52.335Z,1.70
2018-05-06T19:49:19.922Z,2.10
2018-05-06T19:51:47.521Z,1.80
2018-05-06T19:54:15.120Z,1.97
2018-05-06T19:56:42.701Z,1.90
2018-05-06T19:59:10.304Z,1.83
2018-05-06T20:01:37.888Z,2.07
2018-05-06T20:04:05.572Z,2.10
2018-05-06T20:06:33.168Z,1.70
2018-05-06T20:09:00.753Z,2.00
2018-05-06T20:11:29.113Z,2.30
2018-05-06T20:13:56.825Z,2.17
2018-05-06T20:16:24.428Z,2.10
2018-05-06T20:18:52.014Z,1.93
2018-05-06T20:21:19.687Z,2.10
2018-05-06T20:23:47.269Z,2.40
2018-05-06T20:26:14.874Z,2.27
2018-05-06T20:28:42.488Z,2.10
2018-05-06T20:31:10.084Z,2.10
2018-05-06T20:33:37.674Z,2.27
2018-05-06T20:36:05.273Z,2.10
2018-05-06T20:38:33.700Z,2.30
2018-05-06T20:41:01.281Z,2.17
2018-05-06T20:43:28.892Z,2.10
2018-05-06T20:45:56.932Z,2.13
2018-05-06T20:48:25.313Z,2.07
2018-05-06T20:50:53.675Z,2.40
2018-05-06T20:53:21.247Z,2.67
2018-05-06T20:55:48.814Z,1.97
2018-05-06T20:58:16.412Z,2.43
2018-05-06T21:00:44.043Z,2.60
2018-05-06T21:03:11.622Z,2.50
2018-05-06T21:05:39.221Z,2.30
2018-05-06T21:08:06.813Z,2.40
2018-05-06T21:10:34.452Z,2.30
2018-05-06T21:13:02.128Z,2.50
2018-05-06T21:15:29.726Z,2.03
2018-05-06T21:17:57.328Z,2.47
2018-05-06T21:20:24.947Z,2.40
2018-05-06T21:22:52.518Z,2.27
2018-05-06T21:25:20.149Z,2.40
2018-05-06T21:27:48.463Z,2.00
2018-05-06T21:30:16.190Z,2.70
2018-05-06T21:32:43.838Z,2.53
2018-05-06T21:35:11.458Z,2.43
2018-05-06T21:37:39.215Z,2.60
2018-05-06T21:40:06.809Z,2.80
2018-05-06T21:42:34.384Z,2.57
2018-05-06T21:45:02.018Z,2.43
2018-05-06T21:47:29.586Z,2.33
2018-05-06T21:49:57.151Z,2.40
2018-05-06T21:52:24.760Z,2.17
2018-05-06T21:54:53.187Z,2.50
2018-05-06T21:57:20.776Z,2.30
2018-05-06T21:59:48.356Z,2.20
2018-05-06T22:02:16.719Z,2.27
2018-05-06T22:04:44.291Z,2.30
2018-05-06T22:07:11.891Z,2.10
2018-05-06T22:09:39.473Z,2.57
2018-05-06T22:12:07.095Z,2.37
2018-05-06T22:14:34.690Z,2.40
2018-05-06T22:17:02.289Z,2.20
2018-05-06T22:19:29.870Z,2.03
2018-05-06T22:21:58.214Z,2.40
2018-05-06T22:24:25.814Z,2.00
2018-05-06T22:26:53.410Z,2.50
2018-05-06T22:29:21.034Z,2.90
2018-05-06T22:31:48.643Z,2.40
2018-05-06T22:34:16.325Z,2.67
2018-05-06T22:36:43.867Z,3.10
2018-05-06T22:39:11.454Z,3.03
2018-05-06T22:41:39.068Z,2.60
2018-05-06T22:44:06.671Z,2.87
2018-05-06T22:46:34.332Z,2.40
2018-05-06T22:49:01.932Z,2.20
2018-05-06T22:51:30.298Z,2.07
2018-05-06T22:53:58.020Z,2.83
2018-05-06T22:56:25.648Z,2.40
2018-05-06T22:58:53.978Z,2.30
2018-05-06T23:01:21.568Z,2.47
2018-05-06T23:03:49.945Z,2.30
2018-05-06T23:06:17.567Z,2.20
2018-05-06T23:08:45.167Z,2.50
2018-05-06T23:11:12.764Z,2.27
2018-05-06T23:13:40.360Z,2.50
2018-05-06T23:16:07.974Z,2.10
2018-05-06T23:18:35.569Z,2.40
2018-05-06T23:21:03.990Z,2.23
2018-05-06T23:23:31.563Z,2.23
2018-05-06T23:25:59.193Z,2.37
2018-05-06T23:28:26.791Z,2.20
2018-05-06T23:30:54.392Z,2.70
2018-05-06T23:33:22.008Z,2.57
2018-05-06T23:35:49.644Z,2.50
2018-05-06T23:38:17.305Z,2.07
2018-05-06T23:40:44.876Z,2.60
2018-05-06T23:43:12.468Z,2.40
2018-05-06T23:45:40.045Z,2.30
2018-05-06T23:48:07.668Z,2.60
2018-05-06T23:50:35.271Z,2.50
2018-05-06T23:53:02.840Z,2.33
2018-05-06T23:55:30.499Z,2.63
2018-05-06T23:57:58.130Z,2.30
